Pagrindinis puslapis
METAR-TAF:

METAR-TAF

Oro uostai :

Nalčikas, Rusija

platuma: 43-30-46N, ilguma: 043-38-12E, Aukštis: 445 m

Dabartinis oras

Ataskaita buvo paskelbta 19 minutes, ne 10:30 UTC
Vėjas 6 kt iš Rytų
Temperatūra 6°C
Drėgmė 61%
Slėgis 1010 hPa
Matomumas 10 km arba daugiau
Su prošvaistėmis ne aukštis 2900 ft
Apsiniaukę

METAR: URMN 291030Z 10003MPS 9999 BKN029 OVC/// 06/M01 Q1010 R24/010070 NOSIG RMK QFE721

Laikas: 14:49 (10:49 UTC)

Prognozė

Ataskaita buvo paskelbta 2 valandos ir 49 minutes, ne 08:00 UTC
Prognozė galioja nuo 29 metu 09 UTC su 29 metu 18 UTC
Vėjas 6 kt iš Rytų su gūsio iki 16 kt
Matomumas 10 km arba daugiau
Su prošvaistėmis ne aukštis 2000 ft, Liūtiniai kamuoliniai debesys.
Laikinai
nuo 29 metu 09 UTC su 29 metu 18 UTC
Matomumas: 5000 m
Išsisklaidę debesys ne aukštis 1100 ft
Su prošvaistėmis ne aukštis 1500 ft, Liūtiniai kamuoliniai debesys.
lietus

TAF: URMN 290800Z 2909/2918 09003G08MPS 9999 BKN020CB TEMPO 2909/2918 5000 -SHRA SCT011 BKN015CB

Orai ataskaitas ir orų prognozės (METAR, TAF).

turimą stotys yra geltonos ir raudonos taškus žemėlapyje.

Perkelti pele per norėdami pamatyti stoties vardą.

Tada spustelėkite, norėdami matyti oro stebėjimo ir prognozės.

Norėdami pakeisti žemėlapį: spustelėkite ant žalios mygtukų su juodo kryžiaus žemyn,; žalią mygtuką su brūkšneliu, jei norite nutolinti; arba žalių rodyklių gretimoms žemėlapius.


METAR-TAF: